createdAt,value
2018-06-28T00:01:27.689Z,20.45
2018-06-28T00:03:57.869Z,20.46
2018-06-28T00:06:28.137Z,20.43
2018-06-28T00:08:58.400Z,20.45
2018-06-28T00:11:28.449Z,20.44
2018-06-28T00:13:58.624Z,20.46
2018-06-28T00:16:28.636Z,20.45
2018-06-28T00:18:58.963Z,20.43
2018-06-28T00:21:29.243Z,20.45
2018-06-28T00:23:59.527Z,20.44
2018-06-28T00:26:29.751Z,20.46
2018-06-28T00:28:59.996Z,20.46
2018-06-28T00:31:30.227Z,20.47
2018-06-28T00:34:00.472Z,20.43
2018-06-28T00:36:30.775Z,20.46
2018-06-28T00:39:01.066Z,20.46
2018-06-28T00:41:31.362Z,20.45
2018-06-28T00:44:01.626Z,20.46
2018-06-28T00:46:33.072Z,20.46
2018-06-28T00:49:03.263Z,20.46
2018-06-28T00:51:33.391Z,20.46
2018-06-28T00:54:03.374Z,20.45
2018-06-28T00:56:33.531Z,20.44
2018-06-28T00:59:03.783Z,20.47
2018-06-28T01:01:33.862Z,20.47
2018-06-28T01:04:04.000Z,20.46
2018-06-28T01:06:34.260Z,20.45
2018-06-28T01:09:06.568Z,20.46
2018-06-28T01:11:36.820Z,20.47
2018-06-28T01:14:07.103Z,20.45
2018-06-28T01:16:37.872Z,20.46
2018-06-28T01:19:08.845Z,20.47
2018-06-28T01:21:39.164Z,20.46
2018-06-28T01:24:09.309Z,20.46
2018-06-28T01:26:39.305Z,20.47
2018-06-28T01:29:09.491Z,20.44
2018-06-28T01:31:39.731Z,20.47
2018-06-28T01:34:09.763Z,20.48
2018-06-28T01:36:39.890Z,20.46
2018-06-28T01:39:11.610Z,20.47
2018-06-28T01:41:59.109Z,20.47
2018-06-28T01:44:29.377Z,20.46
2018-06-28T01:46:59.651Z,20.44
2018-06-28T01:49:29.896Z,20.46
2018-06-28T01:52:00.128Z,20.47
2018-06-28T01:54:30.440Z,20.46
2018-06-28T01:57:00.714Z,20.47
2018-06-28T01:59:30.969Z,20.47
2018-06-28T02:02:01.207Z,20.44
2018-06-28T02:04:31.631Z,20.44
2018-06-28T02:07:01.938Z,20.46
2018-06-28T02:09:32.191Z,20.46
2018-06-28T02:12:02.448Z,20.46
2018-06-28T02:14:32.712Z,20.45
2018-06-28T02:17:03.054Z,20.46
2018-06-28T02:19:33.347Z,20.46
2018-06-28T02:22:03.642Z,20.46
2018-06-28T02:24:33.943Z,20.44
2018-06-28T02:27:04.227Z,20.45
2018-06-28T02:29:34.759Z,20.46
2018-06-28T02:32:05.003Z,20.45
2018-06-28T02:34:35.500Z,20.45
2018-06-28T02:37:05.819Z,20.45
2018-06-28T02:39:36.062Z,20.45
2018-06-28T02:42:06.613Z,20.42
2018-06-28T02:44:36.906Z,20.45
2018-06-28T02:47:07.173Z,20.45
2018-06-28T02:49:37.470Z,20.45
2018-06-28T02:52:07.744Z,20.45
2018-06-28T02:54:38.027Z,20.45
2018-06-28T02:57:08.300Z,20.46
2018-06-28T02:59:38.731Z,20.42
2018-06-28T03:02:08.951Z,20.44
2018-06-28T03:04:39.289Z,20.45
2018-06-28T03:07:09.554Z,20.46
2018-06-28T03:09:39.816Z,20.45
2018-06-28T03:12:10.126Z,20.44
2018-06-28T03:14:40.422Z,20.45
2018-06-28T03:17:10.738Z,20.45
2018-06-28T03:19:41.098Z,20.45
2018-06-28T03:22:11.474Z,20.42
2018-06-28T03:24:41.538Z,20.46
2018-06-28T03:27:11.736Z,20.42
2018-06-28T03:29:41.983Z,20.43
2018-06-28T03:32:12.252Z,20.45
2018-06-28T03:34:42.296Z,20.44
2018-06-28T03:37:12.419Z,20.45
2018-06-28T03:39:42.693Z,20.45
2018-06-28T03:42:13.179Z,20.44
2018-06-28T03:44:43.602Z,20.44
2018-06-28T03:47:13.983Z,20.44
2018-06-28T03:49:44.214Z,20.45
2018-06-28T03:52:14.622Z,20.42
2018-06-28T03:54:44.979Z,20.46
2018-06-28T03:57:15.294Z,20.46
2018-06-28T03:59:45.580Z,20.45
2018-06-28T04:02:15.861Z,20.43
2018-06-28T04:04:46.195Z,20.47
2018-06-28T04:07:16.432Z,20.47
2018-06-28T04:09:46.923Z,20.47
2018-06-28T04:12:17.262Z,20.46
2018-06-28T04:14:47.512Z,20.46
2018-06-28T04:17:17.790Z,20.45
2018-06-28T04:19:48.094Z,20.47
2018-06-28T04:22:23.282Z,20.45
2018-06-28T04:24:53.627Z,20.47
2018-06-28T04:27:23.972Z,20.49
2018-06-28T04:29:54.077Z,20.48
2018-06-28T04:32:24.530Z,20.48
2018-06-28T04:34:54.855Z,20.49
2018-06-28T04:37:25.091Z,20.48
2018-06-28T04:39:55.549Z,20.46
2018-06-28T04:42:25.771Z,20.48
2018-06-28T04:44:56.003Z,20.49
2018-06-28T04:47:26.329Z,20.50
2018-06-28T04:49:56.672Z,20.47
2018-06-28T04:52:26.890Z,20.48
2018-06-28T04:54:57.160Z,20.48
2018-06-28T04:57:27.546Z,20.48
2018-06-28T04:59:57.830Z,20.50
2018-06-28T05:02:27.952Z,20.48
2018-06-28T05:04:58.111Z,20.50
2018-06-28T05:07:28.369Z,20.47
2018-06-28T05:09:58.646Z,20.50
2018-06-28T05:12:28.911Z,20.49
2018-06-28T05:14:59.293Z,20.49
2018-06-28T05:17:30.507Z,20.47
2018-06-28T05:20:00.653Z,20.50
2018-06-28T05:22:30.840Z,20.48
2018-06-28T05:25:01.317Z,20.50
2018-06-28T05:27:31.580Z,20.50
2018-06-28T05:30:01.876Z,20.51
2018-06-28T05:32:32.162Z,20.51
2018-06-28T05:35:02.520Z,20.51
2018-06-28T05:37:32.832Z,20.50
2018-06-28T05:40:03.009Z,20.50
2018-06-28T05:42:33.291Z,20.51
2018-06-28T05:45:03.651Z,20.51
2018-06-28T05:47:33.961Z,20.52
2018-06-28T05:50:04.229Z,20.52
2018-06-28T05:52:34.525Z,20.51
2018-06-28T05:55:04.914Z,20.51
2018-06-28T05:57:35.172Z,20.52
2018-06-28T06:00:06.114Z,20.52
2018-06-28T06:02:36.409Z,20.53
2018-06-28T06:05:06.694Z,20.53
2018-06-28T06:07:36.956Z,20.55
2018-06-28T06:10:07.295Z,20.56
2018-06-28T06:12:37.539Z,20.54
2018-06-28T06:15:07.992Z,20.53
2018-06-28T06:17:38.275Z,20.54
2018-06-28T06:20:09.143Z,20.54
2018-06-28T06:22:39.394Z,20.54
2018-06-28T06:25:09.709Z,20.53
2018-06-28T06:27:39.825Z,20.54
2018-06-28T06:30:10.566Z,20.55
2018-06-28T06:32:40.840Z,20.55
2018-06-28T06:35:11.110Z,20.52
2018-06-28T06:37:41.423Z,20.56
2018-06-28T06:40:11.788Z,20.54
2018-06-28T06:42:42.090Z,20.53
2018-06-28T06:45:12.338Z,20.56
2018-06-28T06:47:42.599Z,20.56
2018-06-28T06:50:12.878Z,20.55
2018-06-28T06:52:43.151Z,20.55
2018-06-28T06:55:13.479Z,20.57
2018-06-28T06:57:43.864Z,20.57
2018-06-28T07:00:14.094Z,20.58
2018-06-28T07:02:44.357Z,20.57
2018-06-28T07:05:14.651Z,20.58
2018-06-28T07:07:44.893Z,20.55
2018-06-28T07:10:15.173Z,20.58
2018-06-28T07:12:45.416Z,20.59
2018-06-28T07:15:15.721Z,20.59
2018-06-28T07:17:46.058Z,20.59
2018-06-28T07:20:16.377Z,20.57
2018-06-28T07:22:46.672Z,20.58
2018-06-28T07:25:17.115Z,20.59
2018-06-28T07:27:47.416Z,20.58
2018-06-28T07:30:17.725Z,20.59
2018-06-28T07:32:48.215Z,20.61
2018-06-28T07:35:18.502Z,20.58
2018-06-28T07:37:48.904Z,20.60
2018-06-28T07:40:19.418Z,20.62
2018-06-28T07:42:49.703Z,20.63
2018-06-28T07:45:19.999Z,20.63
2018-06-28T07:47:50.276Z,20.63
2018-06-28T07:50:20.583Z,20.62
2018-06-28T07:52:50.885Z,20.65
2018-06-28T07:55:20.934Z,20.63
2018-06-28T07:57:51.021Z,20.65
2018-06-28T08:00:21.077Z,20.65
2018-06-28T08:02:51.218Z,20.65
2018-06-28T08:05:21.596Z,20.66
2018-06-28T08:07:51.843Z,20.66
2018-06-28T08:10:22.111Z,20.63
2018-06-28T08:12:52.385Z,20.64
2018-06-28T08:15:22.649Z,20.64
2018-06-28T08:17:52.881Z,20.67
2018-06-28T08:20:23.123Z,20.67
2018-06-28T08:22:53.405Z,20.66
2018-06-28T08:25:23.682Z,20.67
2018-06-28T08:27:53.729Z,20.68
2018-06-28T08:30:23.693Z,20.69
2018-06-28T08:32:53.831Z,20.69
2018-06-28T08:35:24.125Z,20.69
2018-06-28T08:37:54.454Z,20.69
2018-06-28T08:40:24.738Z,20.72
2018-06-28T08:42:55.015Z,20.70
2018-06-28T08:45:25.320Z,20.69
2018-06-28T08:47:55.611Z,20.71
2018-06-28T08:50:25.851Z,20.71
2018-06-28T08:52:56.144Z,20.72
2018-06-28T08:55:26.424Z,20.73
2018-06-28T08:57:56.789Z,20.73
2018-06-28T09:00:26.951Z,20.69
2018-06-28T09:02:57.230Z,20.73
2018-06-28T09:05:27.527Z,20.75
2018-06-28T09:07:57.817Z,20.75
2018-06-28T09:10:28.053Z,20.75
2018-06-28T09:12:58.314Z,20.73
2018-06-28T09:15:28.810Z,20.74
2018-06-28T09:17:59.126Z,20.76
2018-06-28T09:20:29.435Z,20.75
2018-06-28T09:22:59.758Z,20.76
2018-06-28T09:25:29.964Z,20.79
2018-06-28T09:28:00.233Z,20.79
2018-06-28T09:30:30.535Z,20.78
2018-06-28T09:33:00.789Z,20.77
2018-06-28T09:35:31.094Z,20.78
2018-06-28T09:38:01.351Z,20.81
2018-06-28T09:40:31.649Z,20.82
2018-06-28T09:43:01.933Z,20.81
2018-06-28T09:45:32.226Z,20.80
2018-06-28T09:48:02.459Z,20.82
2018-06-28T09:50:32.746Z,20.81
2018-06-28T09:53:03.057Z,20.81
2018-06-28T09:55:33.318Z,20.82
2018-06-28T09:58:03.713Z,20.83
2018-06-28T10:00:39.163Z,20.82
2018-06-28T10:03:09.432Z,20.80
2018-06-28T10:05:39.546Z,20.83
2018-06-28T10:08:10.487Z,20.84
2018-06-28T10:10:41.218Z,20.83
2018-06-28T10:13:12.561Z,20.83
2018-06-28T10:15:42.798Z,20.83
2018-06-28T10:18:13.172Z,20.83
2018-06-28T10:20:43.335Z,20.86
2018-06-28T10:23:13.724Z,20.84
2018-06-28T10:25:44.041Z,20.85
2018-06-28T10:28:14.351Z,20.86
2018-06-28T10:30:44.590Z,20.84
2018-06-28T10:33:14.833Z,20.84
2018-06-28T10:35:45.109Z,20.87
2018-06-28T10:38:15.373Z,20.88
2018-06-28T10:40:45.623Z,20.88
2018-06-28T10:43:15.964Z,20.88
2018-06-28T10:45:46.266Z,20.85
2018-06-28T10:48:16.662Z,20.88
2018-06-28T10:50:46.916Z,20.90
2018-06-28T10:53:17.193Z,20.89
2018-06-28T10:55:47.485Z,20.90
2018-06-28T10:58:17.778Z,20.89
2018-06-28T11:00:48.051Z,20.90
2018-06-28T11:03:18.146Z,20.89
2018-06-28T11:05:48.331Z,20.92
2018-06-28T11:08:18.677Z,20.95
2018-06-28T11:10:48.918Z,20.91
2018-06-28T11:13:19.198Z,20.94
2018-06-28T11:15:49.604Z,20.94
2018-06-28T11:18:19.554Z,20.96
2018-06-28T11:20:49.691Z,20.95
2018-06-28T11:23:19.967Z,20.99
2018-06-28T11:25:50.421Z,21.01
2018-06-28T11:28:20.690Z,21.01
2018-06-28T11:30:50.939Z,21.02
2018-06-28T11:33:21.303Z,21.04
2018-06-28T11:35:51.566Z,21.03
2018-06-28T11:38:21.847Z,21.07
2018-06-28T11:40:52.138Z,21.06
2018-06-28T11:43:22.178Z,21.09
2018-06-28T11:45:52.137Z,21.09
2018-06-28T11:48:22.387Z,21.09
2018-06-28T11:50:52.408Z,21.10
2018-06-28T11:53:22.538Z,21.11
2018-06-28T11:55:52.641Z,21.14
2018-06-28T11:58:22.819Z,21.18
2018-06-28T12:00:53.116Z,21.18
2018-06-28T12:03:23.406Z,21.20
2018-06-28T12:05:53.425Z,21.22
2018-06-28T12:08:23.597Z,21.23
2018-06-28T12:10:53.889Z,21.26
2018-06-28T12:13:24.162Z,21.28
2018-06-28T12:15:54.423Z,21.28
2018-06-28T12:18:24.430Z,21.26
2018-06-28T12:20:54.592Z,21.30
2018-06-28T12:23:24.896Z,21.31
2018-06-28T12:25:55.232Z,21.31
2018-06-28T12:28:25.535Z,21.29
2018-06-28T12:30:55.817Z,21.29
2018-06-28T12:33:26.171Z,21.28
2018-06-28T12:36:01.355Z,21.25
2018-06-28T12:38:32.658Z,21.26
2018-06-28T12:41:02.941Z,21.25
2018-06-28T12:43:33.228Z,21.26
2018-06-28T12:46:03.508Z,21.25
2018-06-28T12:48:33.802Z,21.25
2018-06-28T12:51:04.071Z,21.25
2018-06-28T12:53:34.361Z,21.25
2018-06-28T12:56:30.646Z,21.25
2018-06-28T12:59:02.235Z,21.23
2018-06-28T13:01:32.697Z,21.24
2018-06-28T13:04:02.962Z,21.22
2018-06-28T13:06:32.981Z,21.21
2018-06-28T13:09:03.468Z,21.23
2018-06-28T13:11:33.755Z,21.23
2018-06-28T13:14:04.218Z,21.23
2018-06-28T13:16:34.575Z,21.22
2018-06-28T13:19:04.903Z,21.20
2018-06-28T13:21:35.136Z,21.21
2018-06-28T13:24:05.596Z,21.21
2018-06-28T13:26:35.874Z,21.21
2018-06-28T13:29:06.367Z,21.18
2018-06-28T13:31:36.765Z,21.20
2018-06-28T13:34:07.068Z,21.21
2018-06-28T13:36:37.426Z,21.19
2018-06-28T13:39:08.402Z,21.19
2018-06-28T13:41:39.050Z,21.19
2018-06-28T13:44:10.076Z,21.20
2018-06-28T13:46:40.418Z,21.19
2018-06-28T13:49:10.904Z,21.20
2018-06-28T13:51:41.555Z,21.20
2018-06-28T13:54:11.826Z,21.19
2018-06-28T13:56:42.255Z,21.22
2018-06-28T13:59:12.559Z,21.20
2018-06-28T14:01:42.859Z,21.20
2018-06-28T14:04:13.237Z,21.22
2018-06-28T14:06:43.538Z,21.20
2018-06-28T14:09:14.040Z,21.22
2018-06-28T14:11:44.620Z,21.22
2018-06-28T14:14:14.994Z,21.23
2018-06-28T14:16:45.324Z,21.22
2018-06-28T14:19:15.664Z,21.23
2018-06-28T14:21:46.145Z,21.25
2018-06-28T14:24:16.622Z,21.24
2018-06-28T14:26:46.956Z,21.22
2018-06-28T14:29:17.254Z,21.22
2018-06-28T14:31:48.217Z,21.19
2018-06-28T14:34:18.519Z,21.21
2018-06-28T14:36:49.342Z,21.21
2018-06-28T14:39:19.703Z,21.23
2018-06-28T14:41:50.256Z,21.24
2018-06-28T14:44:20.644Z,21.23
2018-06-28T14:46:50.876Z,21.24
2018-06-28T14:49:21.220Z,21.25
2018-06-28T14:51:51.586Z,21.27
2018-06-28T14:54:21.869Z,21.25
2018-06-28T14:56:52.217Z,21.21
2018-06-28T14:59:22.463Z,21.21
2018-06-28T15:01:52.814Z,21.23
2018-06-28T15:04:23.129Z,21.26
2018-06-28T15:06:53.406Z,21.25
2018-06-28T15:09:23.511Z,21.26
2018-06-28T15:11:53.649Z,21.25
2018-06-28T15:14:23.695Z,21.26
2018-06-28T15:16:54.025Z,21.27
2018-06-28T15:19:24.486Z,21.26
2018-06-28T15:21:54.758Z,21.23
2018-06-28T15:24:25.073Z,21.26
2018-06-28T15:26:55.362Z,21.26
2018-06-28T15:29:26.569Z,21.26
2018-06-28T15:31:57.060Z,21.25
2018-06-28T15:34:27.330Z,21.28
2018-06-28T15:36:57.644Z,21.25
2018-06-28T15:39:28.314Z,21.25
2018-06-28T15:41:58.572Z,21.24
2018-06-28T15:44:28.885Z,21.26
2018-06-28T15:46:59.240Z,21.28
2018-06-28T15:49:29.499Z,21.29
2018-06-28T15:51:59.963Z,21.29
2018-06-28T15:54:30.246Z,21.26
2018-06-28T15:57:00.653Z,21.30
2018-06-28T15:59:31.710Z,21.29
2018-06-28T16:02:02.264Z,21.29
2018-06-28T16:04:32.512Z,21.31
2018-06-28T16:07:02.873Z,21.29
2018-06-28T16:09:32.909Z,21.25
2018-06-28T16:12:02.847Z,21.30
2018-06-28T16:14:32.947Z,21.31
2018-06-28T16:17:03.276Z,21.30
2018-06-28T16:19:33.499Z,21.31
2018-06-28T16:22:03.849Z,21.32
2018-06-28T16:24:34.224Z,21.32
2018-06-28T16:27:04.482Z,21.31
2018-06-28T16:29:34.725Z,21.29
2018-06-28T16:32:05.076Z,21.33
2018-06-28T16:34:35.353Z,21.31
2018-06-28T16:37:05.706Z,21.28
2018-06-28T16:39:35.977Z,21.32
2018-06-28T16:42:06.352Z,21.27
2018-06-28T16:44:36.691Z,21.31
2018-06-28T16:47:06.971Z,21.32
2018-06-28T16:49:37.223Z,21.32
2018-06-28T16:52:09.178Z,21.33
2018-06-28T16:54:39.424Z,21.33
2018-06-28T16:57:09.703Z,21.31
2018-06-28T16:59:40.064Z,21.29
2018-06-28T17:02:10.255Z,21.31
2018-06-28T17:04:40.554Z,21.33
2018-06-28T17:07:10.843Z,21.36
2018-06-28T17:09:41.158Z,21.37
2018-06-28T17:12:11.503Z,21.33
2018-06-28T17:14:41.864Z,21.32
2018-06-28T17:17:12.251Z,21.34
2018-06-28T17:19:42.662Z,21.34
2018-06-28T17:22:12.933Z,21.33
2018-06-28T17:24:43.237Z,21.37
2018-06-28T17:27:13.556Z,21.34
2018-06-28T17:29:43.591Z,21.35
2018-06-28T17:32:13.842Z,21.35
2018-06-28T17:34:44.149Z,21.36
2018-06-28T17:37:14.552Z,21.36
2018-06-28T17:39:45.364Z,21.36
2018-06-28T17:42:15.735Z,21.37
2018-06-28T17:44:46.065Z,21.37
2018-06-28T17:47:16.431Z,21.37
2018-06-28T17:49:46.884Z,21.38
2018-06-28T17:52:17.139Z,21.38
2018-06-28T17:54:47.808Z,21.38
2018-06-28T17:57:18.009Z,21.39
2018-06-28T17:59:48.158Z,21.36
2018-06-28T18:02:18.387Z,21.37
2018-06-28T18:04:48.835Z,21.39
2018-06-28T18:07:19.161Z,21.39
2018-06-28T18:09:49.865Z,21.40
2018-06-28T18:12:21.354Z,21.39
2018-06-28T18:14:52.161Z,21.41
2018-06-28T18:17:22.542Z,21.40
2018-06-28T18:19:52.918Z,21.42
2018-06-28T18:22:23.188Z,21.42
2018-06-28T18:24:53.647Z,21.43
2018-06-28T18:27:23.931Z,21.41
2018-06-28T18:29:54.463Z,21.40
2018-06-28T18:32:24.896Z,21.43
2018-06-28T18:34:55.008Z,21.42
2018-06-28T18:37:25.394Z,21.43
2018-06-28T18:39:55.655Z,21.41
2018-06-28T18:42:26.019Z,21.42
2018-06-28T18:44:56.306Z,21.44
2018-06-28T18:47:26.602Z,21.43
2018-06-28T18:49:56.880Z,21.45
2018-06-28T18:52:27.408Z,21.45
2018-06-28T18:54:57.798Z,21.44
2018-06-28T18:57:28.137Z,21.43
2018-06-28T18:59:58.247Z,21.46
2018-06-28T19:02:28.566Z,21.45
2018-06-28T19:04:58.812Z,21.46
2018-06-28T19:07:29.138Z,21.47
2018-06-28T19:10:04.595Z,21.46
2018-06-28T19:12:34.721Z,21.48
2018-06-28T19:15:10.368Z,21.47
2018-06-28T19:17:40.639Z,21.48
2018-06-28T19:20:10.991Z,21.48
2018-06-28T19:22:46.666Z,21.45
2018-06-28T19:25:16.999Z,21.47
2018-06-28T19:27:47.284Z,21.47
2018-06-28T19:30:24.111Z,21.46
2018-06-28T19:32:56.666Z,21.45
2018-06-28T19:35:27.000Z,21.45
2018-06-28T19:37:57.330Z,21.49
2018-06-28T19:40:32.825Z,21.46
2018-06-28T19:43:06.329Z,21.46
2018-06-28T19:45:37.220Z,21.49
2018-06-28T19:48:11.298Z,21.56
2018-06-28T19:51:49.677Z,21.85
2018-06-28T19:54:28.779Z,22.02
2018-06-28T19:57:01.576Z,22.10
2018-06-28T19:59:39.801Z,21.96
2018-06-28T20:02:17.759Z,21.96
2018-06-28T20:04:49.625Z,22.17
2018-06-28T20:07:22.911Z,22.10
2018-06-28T20:09:56.606Z,22.06
2018-06-28T20:12:34.052Z,22.19
2018-06-28T20:15:12.329Z,22.23
2018-06-28T20:18:01.512Z,22.19
2018-06-28T20:20:35.670Z,22.23
2018-06-28T20:23:09.938Z,22.25
2018-06-28T20:25:43.453Z,22.29
2018-06-28T20:28:21.215Z,22.32
2018-06-28T20:30:57.674Z,22.40
2018-06-28T20:33:36.312Z,22.47
2018-06-28T20:36:08.540Z,22.57
2018-06-28T20:38:41.477Z,22.50
2018-06-28T20:41:15.215Z,22.58
2018-06-28T20:43:47.568Z,22.58
2018-06-28T20:46:20.967Z,22.57
2018-06-28T20:48:54.468Z,22.59
2018-06-28T20:51:27.822Z,22.62
2018-06-28T20:53:59.947Z,22.64
2018-06-28T20:56:33.774Z,22.62
2018-06-28T20:59:06.054Z,22.69
2018-06-28T21:01:39.860Z,22.76
2018-06-28T21:04:12.972Z,22.79
2018-06-28T21:06:44.976Z,22.85
2018-06-28T21:09:18.888Z,22.88
2018-06-28T21:11:52.384Z,22.84
2018-06-28T21:14:25.675Z,22.79
2018-06-28T21:16:59.203Z,22.86
2018-06-28T21:19:33.315Z,22.87
2018-06-28T21:22:07.068Z,22.85
2018-06-28T21:24:40.725Z,22.87
2018-06-28T21:27:15.045Z,22.98
2018-06-28T21:29:47.905Z,22.97
2018-06-28T21:32:21.047Z,22.99
2018-06-28T21:34:54.090Z,22.97
2018-06-28T21:37:25.546Z,22.96
2018-06-28T21:39:56.035Z,22.98
2018-06-28T21:42:28.117Z,23.01
2018-06-28T21:44:58.241Z,22.98
2018-06-28T21:47:28.509Z,22.96
2018-06-28T21:50:01.922Z,23.01
2018-06-28T21:52:35.754Z,23.03
2018-06-28T21:55:07.806Z,23.07
2018-06-28T21:57:41.381Z,23.03
2018-06-28T22:00:29.494Z,23.03
2018-06-28T22:03:04.200Z,23.01
2018-06-28T22:05:38.312Z,23.07
2018-06-28T22:08:11.945Z,23.09
2018-06-28T22:10:45.468Z,23.08
2018-06-28T22:13:19.164Z,23.10
2018-06-28T22:15:53.229Z,23.09
2018-06-28T22:18:23.544Z,23.10
2018-06-28T22:20:53.831Z,22.90
2018-06-28T22:23:24.099Z,22.71
2018-06-28T22:25:54.218Z,22.65
2018-06-28T22:28:24.353Z,22.60
2018-06-28T22:30:54.611Z,22.54
2018-06-28T22:33:24.902Z,22.49
2018-06-28T22:35:55.158Z,22.48
2018-06-28T22:38:25.458Z,22.44
2018-06-28T22:40:55.778Z,22.41
2018-06-28T22:43:26.054Z,22.38
2018-06-28T22:45:56.426Z,22.35
2018-06-28T22:48:26.683Z,22.34
2018-06-28T22:50:56.943Z,22.32
2018-06-28T22:53:27.234Z,22.26
2018-06-28T22:55:57.489Z,22.26
2018-06-28T22:58:27.768Z,22.26
2018-06-28T23:00:58.082Z,22.22
2018-06-28T23:03:28.350Z,22.19
2018-06-28T23:05:58.701Z,22.20
2018-06-28T23:08:29.119Z,22.20
2018-06-28T23:10:59.387Z,22.21
2018-06-28T23:13:29.643Z,22.17
2018-06-28T23:15:59.923Z,22.15
2018-06-28T23:18:30.252Z,22.15
2018-06-28T23:21:00.542Z,22.14
2018-06-28T23:23:30.870Z,22.15
2018-06-28T23:26:01.186Z,22.12
2018-06-28T23:28:31.463Z,22.12
2018-06-28T23:31:01.768Z,22.09
2018-06-28T23:33:31.789Z,22.11
2018-06-28T23:36:01.932Z,22.08
2018-06-28T23:38:32.193Z,22.09
2018-06-28T23:41:02.459Z,22.09
2018-06-28T23:43:32.719Z,22.07
2018-06-28T23:46:02.959Z,22.07
2018-06-28T23:48:33.261Z,22.07
2018-06-28T23:51:03.551Z,22.05
2018-06-28T23:53:33.859Z,22.05
2018-06-28T23:56:04.097Z,22.03
2018-06-28T23:58:34.381Z,22.04
